sensor_id;sensor_type;location;lat;lon;timestamp;temperature;humidity
16485;DHT22;8353;47.856;12.344;2023-04-25T00:02:06;12.30;99.90
16485;DHT22;8353;47.856;12.344;2023-04-25T00:04:55;12.20;99.90
16485;DHT22;8353;47.856;12.344;2023-04-25T00:07:43;12.10;99.90
16485;DHT22;8353;47.856;12.344;2023-04-25T00:10:30;12.20;99.90
16485;DHT22;8353;47.856;12.344;2023-04-25T00:13:17;12.20;99.90
16485;DHT22;8353;47.856;12.344;2023-04-25T00:16:05;12.10;99.90
16485;DHT22;8353;47.856;12.344;2023-04-25T00:18:52;12.10;99.90
16485;DHT22;8353;47.856;12.344;2023-04-25T00:21:40;12.00;99.90
16485;DHT22;8353;47.856;12.344;2023-04-25T00:24:27;12.10;99.90
16485;DHT22;8353;47.856;12.344;2023-04-25T00:27:14;12.20;99.90
16485;DHT22;8353;47.856;12.344;2023-04-25T00:30:01;12.20;99.90
16485;DHT22;8353;47.856;12.344;2023-04-25T00:32:48;12.20;99.90
16485;DHT22;8353;47.856;12.344;2023-04-25T00:35:35;12.00;99.90
16485;DHT22;8353;47.856;12.344;2023-04-25T00:38:24;12.00;99.90
16485;DHT22;8353;47.856;12.344;2023-04-25T00:41:11;12.00;99.90
16485;DHT22;8353;47.856;12.344;2023-04-25T00:43:59;11.90;99.90
16485;DHT22;8353;47.856;12.344;2023-04-25T00:46:47;12.00;99.90
16485;DHT22;8353;47.856;12.344;2023-04-25T00:49:34;12.00;99.90
16485;DHT22;8353;47.856;12.344;2023-04-25T00:52:21;12.00;99.90
16485;DHT22;8353;47.856;12.344;2023-04-25T00:55:10;12.10;99.90
16485;DHT22;8353;47.856;12.344;2023-04-25T00:57:57;12.00;99.90
16485;DHT22;8353;47.856;12.344;2023-04-25T01:00:45;12.10;99.90
16485;DHT22;8353;47.856;12.344;2023-04-25T01:03:32;12.00;99.90
16485;DHT22;8353;47.856;12.344;2023-04-25T01:06:21;12.10;99.90
16485;DHT22;8353;47.856;12.344;2023-04-25T01:09:08;12.20;99.90
16485;DHT22;8353;47.856;12.344;2023-04-25T01:11:57;12.20;99.90
16485;DHT22;8353;47.856;12.344;2023-04-25T01:14:46;12.20;99.90
16485;DHT22;8353;47.856;12.344;2023-04-25T01:17:34;12.20;99.90
16485;DHT22;8353;47.856;12.344;2023-04-25T01:20:22;12.20;99.90
16485;DHT22;8353;47.856;12.344;2023-04-25T01:23:10;12.20;99.90
16485;DHT22;8353;47.856;12.344;2023-04-25T01:25:58;12.20;99.90
16485;DHT22;8353;47.856;12.344;2023-04-25T01:28:45;12.20;99.90
16485;DHT22;8353;47.856;12.344;2023-04-25T01:31:33;12.20;99.90
16485;DHT22;8353;47.856;12.344;2023-04-25T01:34:21;12.20;99.90
16485;DHT22;8353;47.856;12.344;2023-04-25T01:37:08;12.20;99.90
16485;DHT22;8353;47.856;12.344;2023-04-25T01:39:56;12.20;99.90
16485;DHT22;8353;47.856;12.344;2023-04-25T01:42:43;12.20;99.90
16485;DHT22;8353;47.856;12.344;2023-04-25T01:45:31;12.20;99.90
16485;DHT22;8353;47.856;12.344;2023-04-25T01:48:17;12.20;99.90
16485;DHT22;8353;47.856;12.344;2023-04-25T01:51:04;12.10;99.90
16485;DHT22;8353;47.856;12.344;2023-04-25T01:53:51;12.20;99.90
16485;DHT22;8353;47.856;12.344;2023-04-25T01:56:40;12.10;99.90
16485;DHT22;8353;47.856;12.344;2023-04-25T01:59:27;12.10;99.90
16485;DHT22;8353;47.856;12.344;2023-04-25T02:02:13;12.10;99.90
16485;DHT22;8353;47.856;12.344;2023-04-25T02:05:00;12.10;99.90
16485;DHT22;8353;47.856;12.344;2023-04-25T02:07:47;12.10;99.90
16485;DHT22;8353;47.856;12.344;2023-04-25T02:10:35;12.20;99.90
16485;DHT22;8353;47.856;12.344;2023-04-25T02:13:25;12.20;99.90
16485;DHT22;8353;47.856;12.344;2023-04-25T02:16:12;12.10;99.90
16485;DHT22;8353;47.856;12.344;2023-04-25T02:18:59;12.00;99.90
16485;DHT22;8353;47.856;12.344;2023-04-25T02:21:46;12.00;99.90
16485;DHT22;8353;47.856;12.344;2023-04-25T02:24:33;11.90;99.90
16485;DHT22;8353;47.856;12.344;2023-04-25T02:27:20;11.90;99.90
16485;DHT22;8353;47.856;12.344;2023-04-25T02:30:09;11.80;99.90
16485;DHT22;8353;47.856;12.344;2023-04-25T02:32:56;11.80;99.90
16485;DHT22;8353;47.856;12.344;2023-04-25T02:35:43;11.80;99.90
16485;DHT22;8353;47.856;12.344;2023-04-25T02:38:29;11.90;99.90
16485;DHT22;8353;47.856;12.344;2023-04-25T02:41:16;11.90;99.90
16485;DHT22;8353;47.856;12.344;2023-04-25T02:44:03;11.90;99.90
16485;DHT22;8353;47.856;12.344;2023-04-25T02:46:51;11.90;99.90
16485;DHT22;8353;47.856;12.344;2023-04-25T02:49:39;11.90;99.90
16485;DHT22;8353;47.856;12.344;2023-04-25T02:52:25;11.90;99.90
16485;DHT22;8353;47.856;12.344;2023-04-25T02:55:12;12.00;99.90
16485;DHT22;8353;47.856;12.344;2023-04-25T02:58:00;12.00;99.90
16485;DHT22;8353;47.856;12.344;2023-04-25T03:00:46;12.00;99.90
16485;DHT22;8353;47.856;12.344;2023-04-25T03:03:34;12.00;99.90
16485;DHT22;8353;47.856;12.344;2023-04-25T03:06:21;12.00;99.90
16485;DHT22;8353;47.856;12.344;2023-04-25T03:09:08;11.90;99.90
16485;DHT22;8353;47.856;12.344;2023-04-25T03:11:55;11.80;99.90
16485;DHT22;8353;47.856;12.344;2023-04-25T03:14:42;11.90;99.90
16485;DHT22;8353;47.856;12.344;2023-04-25T03:17:29;11.90;99.90
16485;DHT22;8353;47.856;12.344;2023-04-25T03:20:17;11.80;99.90
16485;DHT22;8353;47.856;12.344;2023-04-25T03:23:04;11.80;99.90
16485;DHT22;8353;47.856;12.344;2023-04-25T03:25:51;11.70;99.90
16485;DHT22;8353;47.856;12.344;2023-04-25T03:28:37;11.70;99.90
16485;DHT22;8353;47.856;12.344;2023-04-25T03:31:25;11.70;99.90
16485;DHT22;8353;47.856;12.344;2023-04-25T03:34:12;11.70;99.90
16485;DHT22;8353;47.856;12.344;2023-04-25T03:37:04;11.70;99.90
16485;DHT22;8353;47.856;12.344;2023-04-25T03:39:51;11.70;99.90
16485;DHT22;8353;47.856;12.344;2023-04-25T03:42:38;11.60;99.90
16485;DHT22;8353;47.856;12.344;2023-04-25T03:45:25;11.60;99.90
16485;DHT22;8353;47.856;12.344;2023-04-25T03:48:12;11.50;99.90
16485;DHT22;8353;47.856;12.344;2023-04-25T03:50:59;11.50;99.90
16485;DHT22;8353;47.856;12.344;2023-04-25T03:53:48;11.70;99.90
16485;DHT22;8353;47.856;12.344;2023-04-25T03:56:34;11.60;99.90
16485;DHT22;8353;47.856;12.344;2023-04-25T03:59:21;11.60;99.90
16485;DHT22;8353;47.856;12.344;2023-04-25T04:02:08;11.60;99.90
16485;DHT22;8353;47.856;12.344;2023-04-25T04:04:55;11.60;99.90
16485;DHT22;8353;47.856;12.344;2023-04-25T04:07:42;11.60;99.90
16485;DHT22;8353;47.856;12.344;2023-04-25T04:10:30;11.60;99.90
16485;DHT22;8353;47.856;12.344;2023-04-25T04:13:18;11.50;99.90
16485;DHT22;8353;47.856;12.344;2023-04-25T04:16:05;11.40;99.90
16485;DHT22;8353;47.856;12.344;2023-04-25T04:18:52;11.30;99.90
16485;DHT22;8353;47.856;12.344;2023-04-25T04:21:39;11.40;99.90
16485;DHT22;8353;47.856;12.344;2023-04-25T04:24:26;11.20;99.90
16485;DHT22;8353;47.856;12.344;2023-04-25T04:27:14;11.30;99.90
16485;DHT22;8353;47.856;12.344;2023-04-25T04:30:03;11.30;99.90
16485;DHT22;8353;47.856;12.344;2023-04-25T04:32:50;11.30;99.90
16485;DHT22;8353;47.856;12.344;2023-04-25T04:35:37;11.40;99.90
16485;DHT22;8353;47.856;12.344;2023-04-25T04:38:25;11.40;99.90
16485;DHT22;8353;47.856;12.344;2023-04-25T04:41:12;11.10;99.90
16485;DHT22;8353;47.856;12.344;2023-04-25T04:44:00;10.80;99.90
16485;DHT22;8353;47.856;12.344;2023-04-25T04:46:48;10.50;99.90
16485;DHT22;8353;47.856;12.344;2023-04-25T04:49:36;10.30;99.90
16485;DHT22;8353;47.856;12.344;2023-04-25T04:52:22;10.10;99.90
16485;DHT22;8353;47.856;12.344;2023-04-25T04:55:09;10.10;99.90
16485;DHT22;8353;47.856;12.344;2023-04-25T04:57:57;10.10;99.90
16485;DHT22;8353;47.856;12.344;2023-04-25T05:00:46;10.20;99.90
16485;DHT22;8353;47.856;12.344;2023-04-25T05:03:33;10.30;99.90
16485;DHT22;8353;47.856;12.344;2023-04-25T05:06:19;10.30;99.90
16485;DHT22;8353;47.856;12.344;2023-04-25T05:09:06;10.40;99.90
16485;DHT22;8353;47.856;12.344;2023-04-25T05:11:53;10.50;99.90
16485;DHT22;8353;47.856;12.344;2023-04-25T05:14:40;10.60;99.90
16485;DHT22;8353;47.856;12.344;2023-04-25T05:17:28;10.70;99.90
16485;DHT22;8353;47.856;12.344;2023-04-25T05:20:15;10.60;99.90
16485;DHT22;8353;47.856;12.344;2023-04-25T05:23:04;10.70;99.90
16485;DHT22;8353;47.856;12.344;2023-04-25T05:25:50;10.70;99.90
16485;DHT22;8353;47.856;12.344;2023-04-25T05:28:37;10.80;99.90
16485;DHT22;8353;47.856;12.344;2023-04-25T05:31:26;10.80;99.90
16485;DHT22;8353;47.856;12.344;2023-04-25T05:34:15;10.80;99.90
16485;DHT22;8353;47.856;12.344;2023-04-25T05:37:02;10.70;99.90
16485;DHT22;8353;47.856;12.344;2023-04-25T05:39:49;10.70;99.90
16485;DHT22;8353;47.856;12.344;2023-04-25T05:42:36;10.70;99.90
16485;DHT22;8353;47.856;12.344;2023-04-25T05:45:23;10.40;99.90
16485;DHT22;8353;47.856;12.344;2023-04-25T05:48:13;10.10;99.90
16485;DHT22;8353;47.856;12.344;2023-04-25T05:51:02;9.90;99.90
16485;DHT22;8353;47.856;12.344;2023-04-25T05:53:49;9.90;99.90
16485;DHT22;8353;47.856;12.344;2023-04-25T05:56:35;9.80;99.90
16485;DHT22;8353;47.856;12.344;2023-04-25T05:59:22;10.00;99.90
16485;DHT22;8353;47.856;12.344;2023-04-25T06:02:09;10.10;99.90
16485;DHT22;8353;47.856;12.344;2023-04-25T06:04:56;10.30;99.90
16485;DHT22;8353;47.856;12.344;2023-04-25T06:07:44;10.30;99.90
16485;DHT22;8353;47.856;12.344;2023-04-25T06:10:31;10.40;99.90
16485;DHT22;8353;47.856;12.344;2023-04-25T06:13:18;10.40;99.90
16485;DHT22;8353;47.856;12.344;2023-04-25T06:16:05;10.40;99.90
16485;DHT22;8353;47.856;12.344;2023-04-25T06:18:52;10.40;99.90
16485;DHT22;8353;47.856;12.344;2023-04-25T06:21:39;10.50;99.90
16485;DHT22;8353;47.856;12.344;2023-04-25T06:24:27;10.50;99.90
16485;DHT22;8353;47.856;12.344;2023-04-25T06:27:14;10.50;99.90
16485;DHT22;8353;47.856;12.344;2023-04-25T06:30:01;10.30;99.90
16485;DHT22;8353;47.856;12.344;2023-04-25T06:32:48;10.20;99.90
16485;DHT22;8353;47.856;12.344;2023-04-25T06:35:35;10.30;99.90
16485;DHT22;8353;47.856;12.344;2023-04-25T06:38:27;10.40;99.90
16485;DHT22;8353;47.856;12.344;2023-04-25T06:41:16;10.40;99.90
16485;DHT22;8353;47.856;12.344;2023-04-25T06:44:03;10.50;99.90
16485;DHT22;8353;47.856;12.344;2023-04-25T06:46:49;10.50;99.90
16485;DHT22;8353;47.856;12.344;2023-04-25T06:49:36;10.80;99.90
16485;DHT22;8353;47.856;12.344;2023-04-25T06:52:23;10.90;99.90
16485;DHT22;8353;47.856;12.344;2023-04-25T06:55:10;10.90;99.90
16485;DHT22;8353;47.856;12.344;2023-04-25T06:57:58;10.80;99.90
16485;DHT22;8353;47.856;12.344;2023-04-25T07:00:48;11.00;99.90
16485;DHT22;8353;47.856;12.344;2023-04-25T07:03:34;11.20;99.90
16485;DHT22;8353;47.856;12.344;2023-04-25T07:06:22;11.10;99.90
16485;DHT22;8353;47.856;12.344;2023-04-25T07:09:11;11.20;99.90
16485;DHT22;8353;47.856;12.344;2023-04-25T07:12:01;11.20;99.90
16485;DHT22;8353;47.856;12.344;2023-04-25T07:14:49;11.30;99.90
16485;DHT22;8353;47.856;12.344;2023-04-25T07:17:37;11.50;99.90
16485;DHT22;8353;47.856;12.344;2023-04-25T07:20:25;11.70;99.90
16485;DHT22;8353;47.856;12.344;2023-04-25T07:23:13;11.80;99.90
16485;DHT22;8353;47.856;12.344;2023-04-25T07:26:00;11.80;99.90
16485;DHT22;8353;47.856;12.344;2023-04-25T07:28:46;12.00;99.90
16485;DHT22;8353;47.856;12.344;2023-04-25T07:31:37;12.00;99.90
16485;DHT22;8353;47.856;12.344;2023-04-25T07:34:24;12.10;99.90
16485;DHT22;8353;47.856;12.344;2023-04-25T07:37:11;12.30;99.90
16485;DHT22;8353;47.856;12.344;2023-04-25T07:39:59;12.40;99.90
16485;DHT22;8353;47.856;12.344;2023-04-25T07:42:46;12.50;99.90
16485;DHT22;8353;47.856;12.344;2023-04-25T07:45:33;12.50;99.90
16485;DHT22;8353;47.856;12.344;2023-04-25T07:48:22;12.70;99.90
16485;DHT22;8353;47.856;12.344;2023-04-25T07:51:14;13.00;99.90
16485;DHT22;8353;47.856;12.344;2023-04-25T07:54:01;13.00;99.90
16485;DHT22;8353;47.856;12.344;2023-04-25T07:56:48;13.10;99.90
16485;DHT22;8353;47.856;12.344;2023-04-25T07:59:35;13.30;99.90
16485;DHT22;8353;47.856;12.344;2023-04-25T08:02:22;13.30;99.90
16485;DHT22;8353;47.856;12.344;2023-04-25T08:05:10;13.30;99.90
16485;DHT22;8353;47.856;12.344;2023-04-25T08:08:04;13.30;99.90
16485;DHT22;8353;47.856;12.344;2023-04-25T08:10:52;13.50;99.90
16485;DHT22;8353;47.856;12.344;2023-04-25T08:13:43;13.60;99.90
16485;DHT22;8353;47.856;12.344;2023-04-25T08:16:30;13.80;99.90
16485;DHT22;8353;47.856;12.344;2023-04-25T08:19:17;13.80;99.90
16485;DHT22;8353;47.856;12.344;2023-04-25T08:22:09;13.60;99.90
16485;DHT22;8353;47.856;12.344;2023-04-25T08:24:55;13.40;99.90
16485;DHT22;8353;47.856;12.344;2023-04-25T08:27:43;13.40;99.90
16485;DHT22;8353;47.856;12.344;2023-04-25T08:30:30;13.30;99.90
16485;DHT22;8353;47.856;12.344;2023-04-25T08:33:16;13.20;99.90
16485;DHT22;8353;47.856;12.344;2023-04-25T08:36:04;13.00;99.90
16485;DHT22;8353;47.856;12.344;2023-04-25T08:38:52;12.90;99.90
16485;DHT22;8353;47.856;12.344;2023-04-25T08:41:40;13.20;99.90
16485;DHT22;8353;47.856;12.344;2023-04-25T08:44:27;13.60;99.90
16485;DHT22;8353;47.856;12.344;2023-04-25T08:47:15;13.70;99.90
16485;DHT22;8353;47.856;12.344;2023-04-25T08:50:04;13.60;99.90
16485;DHT22;8353;47.856;12.344;2023-04-25T08:52:53;13.70;99.90
16485;DHT22;8353;47.856;12.344;2023-04-25T08:55:42;14.00;99.90
16485;DHT22;8353;47.856;12.344;2023-04-25T08:58:29;14.00;99.90
16485;DHT22;8353;47.856;12.344;2023-04-25T09:01:18;14.20;99.90
16485;DHT22;8353;47.856;12.344;2023-04-25T09:04:05;14.50;99.90
16485;DHT22;8353;47.856;12.344;2023-04-25T09:06:53;14.80;99.90
16485;DHT22;8353;47.856;12.344;2023-04-25T09:09:40;14.90;99.90
16485;DHT22;8353;47.856;12.344;2023-04-25T09:12:31;15.00;99.90
16485;DHT22;8353;47.856;12.344;2023-04-25T09:15:18;15.00;99.90
16485;DHT22;8353;47.856;12.344;2023-04-25T09:18:05;14.80;99.90
16485;DHT22;8353;47.856;12.344;2023-04-25T09:20:52;14.80;99.90
16485;DHT22;8353;47.856;12.344;2023-04-25T09:23:40;14.90;99.90
16485;DHT22;8353;47.856;12.344;2023-04-25T09:26:27;14.90;99.90
16485;DHT22;8353;47.856;12.344;2023-04-25T09:29:16;14.90;99.90
16485;DHT22;8353;47.856;12.344;2023-04-25T09:32:19;14.80;99.90
16485;DHT22;8353;47.856;12.344;2023-04-25T09:35:06;14.90;99.90
16485;DHT22;8353;47.856;12.344;2023-04-25T09:37:55;15.10;99.90
16485;DHT22;8353;47.856;12.344;2023-04-25T09:40:45;15.40;99.90
16485;DHT22;8353;47.856;12.344;2023-04-25T09:43:32;15.60;99.90
16485;DHT22;8353;47.856;12.344;2023-04-25T09:46:23;15.90;99.90
16485;DHT22;8353;47.856;12.344;2023-04-25T09:49:10;15.80;99.90
16485;DHT22;8353;47.856;12.344;2023-04-25T09:51:59;16.00;99.90
16485;DHT22;8353;47.856;12.344;2023-04-25T09:54:46;16.00;99.90
16485;DHT22;8353;47.856;12.344;2023-04-25T09:57:34;15.80;99.90
16485;DHT22;8353;47.856;12.344;2023-04-25T10:00:25;15.80;99.90
16485;DHT22;8353;47.856;12.344;2023-04-25T10:03:20;15.80;99.90
16485;DHT22;8353;47.856;12.344;2023-04-25T10:06:12;15.70;99.90
16485;DHT22;8353;47.856;12.344;2023-04-25T10:09:07;15.60;99.90
16485;DHT22;8353;47.856;12.344;2023-04-25T10:11:54;15.40;99.90
16485;DHT22;8353;47.856;12.344;2023-04-25T10:14:42;15.00;99.90
16485;DHT22;8353;47.856;12.344;2023-04-25T10:17:29;15.00;99.90
16485;DHT22;8353;47.856;12.344;2023-04-25T10:20:22;14.80;99.90
16485;DHT22;8353;47.856;12.344;2023-04-25T10:23:12;14.70;99.90
16485;DHT22;8353;47.856;12.344;2023-04-25T10:26:00;14.60;99.90
16485;DHT22;8353;47.856;12.344;2023-04-25T10:28:57;14.70;99.90
16485;DHT22;8353;47.856;12.344;2023-04-25T10:31:45;14.70;99.90
16485;DHT22;8353;47.856;12.344;2023-04-25T10:34:41;14.90;99.90
16485;DHT22;8353;47.856;12.344;2023-04-25T10:37:30;15.10;99.90
16485;DHT22;8353;47.856;12.344;2023-04-25T10:40:22;15.50;99.90
16485;DHT22;8353;47.856;12.344;2023-04-25T10:43:47;15.70;99.90
16485;DHT22;8353;47.856;12.344;2023-04-25T10:46:34;15.60;99.90
16485;DHT22;8353;47.856;12.344;2023-04-25T10:49:32;15.60;99.90
16485;DHT22;8353;47.856;12.344;2023-04-25T10:52:25;15.80;99.90
16485;DHT22;8353;47.856;12.344;2023-04-25T10:55:15;15.90;99.90
16485;DHT22;8353;47.856;12.344;2023-04-25T10:58:02;16.10;99.90
16485;DHT22;8353;47.856;12.344;2023-04-25T11:00:49;16.30;99.90
16485;DHT22;8353;47.856;12.344;2023-04-25T11:03:40;16.50;99.90
16485;DHT22;8353;47.856;12.344;2023-04-25T11:06:31;16.90;99.90
16485;DHT22;8353;47.856;12.344;2023-04-25T11:09:24;17.00;99.90
16485;DHT22;8353;47.856;12.344;2023-04-25T11:12:13;16.80;99.90
16485;DHT22;8353;47.856;12.344;2023-04-25T11:15:03;16.70;99.90
16485;DHT22;8353;47.856;12.344;2023-04-25T11:17:51;16.60;99.90
16485;DHT22;8353;47.856;12.344;2023-04-25T11:20:38;16.50;99.90
16485;DHT22;8353;47.856;12.344;2023-04-25T11:23:25;16.40;99.90
16485;DHT22;8353;47.856;12.344;2023-04-25T11:26:13;16.30;99.90
16485;DHT22;8353;47.856;12.344;2023-04-25T11:29:03;16.30;99.90
16485;DHT22;8353;47.856;12.344;2023-04-25T11:31:50;16.60;99.90
16485;DHT22;8353;47.856;12.344;2023-04-25T11:34:37;16.70;99.90
16485;DHT22;8353;47.856;12.344;2023-04-25T11:37:24;17.00;99.90
16485;DHT22;8353;47.856;12.344;2023-04-25T11:40:11;17.20;99.90
16485;DHT22;8353;47.856;12.344;2023-04-25T11:43:00;17.10;99.90
16485;DHT22;8353;47.856;12.344;2023-04-25T11:45:49;17.20;99.90
16485;DHT22;8353;47.856;12.344;2023-04-25T11:48:38;17.40;99.90
16485;DHT22;8353;47.856;12.344;2023-04-25T11:51:25;17.20;99.90
16485;DHT22;8353;47.856;12.344;2023-04-25T11:54:13;17.30;99.90
16485;DHT22;8353;47.856;12.344;2023-04-25T11:57:00;17.30;99.90
16485;DHT22;8353;47.856;12.344;2023-04-25T11:59:47;17.40;99.90
16485;DHT22;8353;47.856;12.344;2023-04-25T12:02:36;17.50;99.90
16485;DHT22;8353;47.856;12.344;2023-04-25T12:05:25;17.40;99.90
16485;DHT22;8353;47.856;12.344;2023-04-25T12:08:12;17.50;99.90
16485;DHT22;8353;47.856;12.344;2023-04-25T12:11:05;17.50;99.90
16485;DHT22;8353;47.856;12.344;2023-04-25T12:13:52;17.20;99.90
16485;DHT22;8353;47.856;12.344;2023-04-25T12:16:43;17.00;99.90
16485;DHT22;8353;47.856;12.344;2023-04-25T12:19:34;16.70;99.90
16485;DHT22;8353;47.856;12.344;2023-04-25T12:22:23;16.20;99.90
16485;DHT22;8353;47.856;12.344;2023-04-25T12:25:10;15.60;99.90
16485;DHT22;8353;47.856;12.344;2023-04-25T12:28:09;14.90;99.90
16485;DHT22;8353;47.856;12.344;2023-04-25T12:30:58;14.60;99.90
16485;DHT22;8353;47.856;12.344;2023-04-25T12:33:46;14.00;99.90
16485;DHT22;8353;47.856;12.344;2023-04-25T12:36:34;13.80;99.90
16485;DHT22;8353;47.856;12.344;2023-04-25T12:39:23;13.80;99.90
16485;DHT22;8353;47.856;12.344;2023-04-25T12:42:10;13.60;99.90
16485;DHT22;8353;47.856;12.344;2023-04-25T12:44:58;13.80;99.90
16485;DHT22;8353;47.856;12.344;2023-04-25T12:47:44;13.80;99.90
16485;DHT22;8353;47.856;12.344;2023-04-25T12:50:31;13.50;99.90
16485;DHT22;8353;47.856;12.344;2023-04-25T12:53:21;13.10;99.90
16485;DHT22;8353;47.856;12.344;2023-04-25T12:56:08;13.00;99.90
16485;DHT22;8353;47.856;12.344;2023-04-25T12:58:54;13.00;99.90
16485;DHT22;8353;47.856;12.344;2023-04-25T13:01:44;12.80;99.90
16485;DHT22;8353;47.856;12.344;2023-04-25T13:04:31;12.80;99.90
16485;DHT22;8353;47.856;12.344;2023-04-25T13:07:18;13.00;99.90
16485;DHT22;8353;47.856;12.344;2023-04-25T13:10:07;13.20;99.90
16485;DHT22;8353;47.856;12.344;2023-04-25T13:12:54;13.40;99.90
16485;DHT22;8353;47.856;12.344;2023-04-25T13:15:42;13.20;99.90
16485;DHT22;8353;47.856;12.344;2023-04-25T13:18:29;13.20;99.90
16485;DHT22;8353;47.856;12.344;2023-04-25T13:21:16;13.30;99.90
16485;DHT22;8353;47.856;12.344;2023-04-25T13:24:03;13.40;99.90
16485;DHT22;8353;47.856;12.344;2023-04-25T13:26:51;13.50;99.90
16485;DHT22;8353;47.856;12.344;2023-04-25T13:29:39;13.60;99.90
16485;DHT22;8353;47.856;12.344;2023-04-25T13:32:26;13.80;99.90
16485;DHT22;8353;47.856;12.344;2023-04-25T13:35:13;13.70;99.90
16485;DHT22;8353;47.856;12.344;2023-04-25T13:38:02;13.60;99.90
16485;DHT22;8353;47.856;12.344;2023-04-25T13:40:49;13.70;99.90
16485;DHT22;8353;47.856;12.344;2023-04-25T13:43:39;13.80;99.90
16485;DHT22;8353;47.856;12.344;2023-04-25T13:46:26;13.80;99.90
16485;DHT22;8353;47.856;12.344;2023-04-25T13:49:15;13.90;99.90
16485;DHT22;8353;47.856;12.344;2023-04-25T13:52:02;13.90;99.90
16485;DHT22;8353;47.856;12.344;2023-04-25T13:54:54;13.80;99.90
16485;DHT22;8353;47.856;12.344;2023-04-25T13:57:41;13.70;99.90
16485;DHT22;8353;47.856;12.344;2023-04-25T14:00:30;13.80;99.90
16485;DHT22;8353;47.856;12.344;2023-04-25T14:03:17;13.60;99.90
16485;DHT22;8353;47.856;12.344;2023-04-25T14:06:04;13.50;99.90
16485;DHT22;8353;47.856;12.344;2023-04-25T14:08:51;13.20;99.90
16485;DHT22;8353;47.856;12.344;2023-04-25T14:11:38;13.30;99.90
16485;DHT22;8353;47.856;12.344;2023-04-25T14:14:25;13.20;99.90
16485;DHT22;8353;47.856;12.344;2023-04-25T14:17:15;13.20;99.90
16485;DHT22;8353;47.856;12.344;2023-04-25T14:20:02;13.20;99.90
16485;DHT22;8353;47.856;12.344;2023-04-25T14:22:53;13.20;99.90
16485;DHT22;8353;47.856;12.344;2023-04-25T14:25:41;13.10;99.90
16485;DHT22;8353;47.856;12.344;2023-04-25T14:28:28;13.00;99.90
16485;DHT22;8353;47.856;12.344;2023-04-25T14:31:15;13.10;99.90
16485;DHT22;8353;47.856;12.344;2023-04-25T14:34:03;13.30;99.90
16485;DHT22;8353;47.856;12.344;2023-04-25T14:36:50;13.20;99.90
16485;DHT22;8353;47.856;12.344;2023-04-25T14:39:39;12.90;99.90
16485;DHT22;8353;47.856;12.344;2023-04-25T14:42:27;12.90;99.90
16485;DHT22;8353;47.856;12.344;2023-04-25T14:45:10;13.10;99.90
16485;DHT22;8353;47.856;12.344;2023-04-25T14:47:57;13.20;99.90
16485;DHT22;8353;47.856;12.344;2023-04-25T14:50:45;13.40;99.90
16485;DHT22;8353;47.856;12.344;2023-04-25T14:53:32;13.40;99.90
16485;DHT22;8353;47.856;12.344;2023-04-25T14:56:19;13.40;99.90
16485;DHT22;8353;47.856;12.344;2023-04-25T14:59:06;13.20;99.90
16485;DHT22;8353;47.856;12.344;2023-04-25T15:01:53;13.10;99.90
16485;DHT22;8353;47.856;12.344;2023-04-25T15:04:40;12.90;99.90
16485;DHT22;8353;47.856;12.344;2023-04-25T15:07:28;12.60;99.90
16485;DHT22;8353;47.856;12.344;2023-04-25T15:10:17;12.40;99.90
16485;DHT22;8353;47.856;12.344;2023-04-25T15:13:04;12.10;99.90
16485;DHT22;8353;47.856;12.344;2023-04-25T15:15:51;11.90;99.90
16485;DHT22;8353;47.856;12.344;2023-04-25T15:18:39;11.80;99.90
16485;DHT22;8353;47.856;12.344;2023-04-25T15:21:26;11.90;99.90
16485;DHT22;8353;47.856;12.344;2023-04-25T15:24:14;12.00;99.90
16485;DHT22;8353;47.856;12.344;2023-04-25T15:27:02;12.00;99.90
16485;DHT22;8353;47.856;12.344;2023-04-25T15:29:49;12.30;99.90
16485;DHT22;8353;47.856;12.344;2023-04-25T15:32:37;12.30;99.90
16485;DHT22;8353;47.856;12.344;2023-04-25T15:35:24;12.40;99.90
16485;DHT22;8353;47.856;12.344;2023-04-25T15:38:12;12.60;99.90
16485;DHT22;8353;47.856;12.344;2023-04-25T15:41:00;12.50;99.90
16485;DHT22;8353;47.856;12.344;2023-04-25T15:43:47;12.20;99.90
16485;DHT22;8353;47.856;12.344;2023-04-25T15:46:34;12.10;99.90
16485;DHT22;8353;47.856;12.344;2023-04-25T15:49:21;12.10;99.90
16485;DHT22;8353;47.856;12.344;2023-04-25T15:52:08;12.00;99.90
16485;DHT22;8353;47.856;12.344;2023-04-25T15:54:55;11.80;99.90
16485;DHT22;8353;47.856;12.344;2023-04-25T15:57:43;11.60;99.90
16485;DHT22;8353;47.856;12.344;2023-04-25T16:00:30;11.80;99.90
16485;DHT22;8353;47.856;12.344;2023-04-25T16:03:20;11.90;99.90
16485;DHT22;8353;47.856;12.344;2023-04-25T16:06:08;11.60;99.90
16485;DHT22;8353;47.856;12.344;2023-04-25T16:08:55;11.60;99.90
16485;DHT22;8353;47.856;12.344;2023-04-25T16:11:42;11.40;99.90
16485;DHT22;8353;47.856;12.344;2023-04-25T16:14:32;11.30;99.90
16485;DHT22;8353;47.856;12.344;2023-04-25T16:17:18;11.20;99.90
16485;DHT22;8353;47.856;12.344;2023-04-25T16:20:06;11.10;99.90
16485;DHT22;8353;47.856;12.344;2023-04-25T16:22:55;11.40;99.90
16485;DHT22;8353;47.856;12.344;2023-04-25T16:25:42;11.30;99.90
16485;DHT22;8353;47.856;12.344;2023-04-25T16:28:29;11.40;99.90
16485;DHT22;8353;47.856;12.344;2023-04-25T16:31:17;11.50;99.90
16485;DHT22;8353;47.856;12.344;2023-04-25T16:34:04;11.50;99.90
16485;DHT22;8353;47.856;12.344;2023-04-25T16:36:51;11.50;99.90
16485;DHT22;8353;47.856;12.344;2023-04-25T16:39:38;11.40;99.90
16485;DHT22;8353;47.856;12.344;2023-04-25T16:42:25;11.50;99.90
16485;DHT22;8353;47.856;12.344;2023-04-25T16:45:12;11.50;99.90
16485;DHT22;8353;47.856;12.344;2023-04-25T16:48:02;11.60;99.90
16485;DHT22;8353;47.856;12.344;2023-04-25T16:50:49;11.60;99.90
16485;DHT22;8353;47.856;12.344;2023-04-25T16:53:37;11.70;99.90
16485;DHT22;8353;47.856;12.344;2023-04-25T16:56:24;11.50;99.90
16485;DHT22;8353;47.856;12.344;2023-04-25T16:59:11;11.60;99.90
16485;DHT22;8353;47.856;12.344;2023-04-25T17:01:58;11.40;99.90
16485;DHT22;8353;47.856;12.344;2023-04-25T17:04:46;11.40;99.90
16485;DHT22;8353;47.856;12.344;2023-04-25T17:07:33;11.40;99.90
16485;DHT22;8353;47.856;12.344;2023-04-25T17:10:20;11.60;99.90
16485;DHT22;8353;47.856;12.344;2023-04-25T17:13:07;11.60;99.90
16485;DHT22;8353;47.856;12.344;2023-04-25T17:15:54;11.70;99.90
16485;DHT22;8353;47.856;12.344;2023-04-25T17:18:41;11.80;99.90
16485;DHT22;8353;47.856;12.344;2023-04-25T17:21:29;11.80;99.90
16485;DHT22;8353;47.856;12.344;2023-04-25T17:24:17;11.90;99.90
16485;DHT22;8353;47.856;12.344;2023-04-25T17:27:06;12.10;99.90
16485;DHT22;8353;47.856;12.344;2023-04-25T17:29:53;12.00;99.90
16485;DHT22;8353;47.856;12.344;2023-04-25T17:32:39;11.90;99.90
16485;DHT22;8353;47.856;12.344;2023-04-25T17:35:27;11.70;99.90
16485;DHT22;8353;47.856;12.344;2023-04-25T17:38:16;11.60;99.90
16485;DHT22;8353;47.856;12.344;2023-04-25T17:41:03;11.60;99.90